Pagrindinis puslapis
METAR-TAF:

METAR-TAF

Oro uostai :

Jaroslavlis, Rusija

platuma: 57-33-38N, ilguma: 040-09-27E, Aukštis: 87 m

Dabartinis oras

Ataskaita buvo paskelbta 13 minutes, ne 03:00 UTC
Vėjas 10 kt iš Pietvakarių
Temperatūra 3°C
Drėgmė 81%
Slėgis 1005 hPa
Matomumas 10 km arba daugiau
Su prošvaistėmis ne aukštis 4200 ft

METAR: UUDL 180300Z 23005MPS 9999 BKN042 03/00 Q1005 R23/190055 NOSIG RMK QFE745

Laikas: 06:13 (03:13 UTC)

Prognozė

Ataskaita buvo paskelbta 1 valandą ir 13 minutes, ne 02:00 UTC
Prognozė galioja nuo 18 metu 03 UTC su 19 metu 03 UTC
Vėjas 10 kt iš Pietvakarių
Matomumas 10 km arba daugiau
Su prošvaistėmis ne aukštis 4000 ft
Laikinai
nuo 18 metu 03 UTC su 18 metu 15 UTC
Su prošvaistėmis ne aukštis 1600 ft

TAF: UUDL 180200Z 1803/1903 23005MPS 9999 BKN040 TX05/1812Z TN02/1903Z TEMPO 1803/1815 BKN016

Orai ataskaitas ir orų prognozės (METAR, TAF).

turimą stotys yra geltonos ir raudonos taškus žemėlapyje.

Perkelti pele per norėdami pamatyti stoties vardą.

Tada spustelėkite, norėdami matyti oro stebėjimo ir prognozės.

Norėdami pakeisti žemėlapį: spustelėkite ant žalios mygtukų su juodo kryžiaus žemyn,; žalią mygtuką su brūkšneliu, jei norite nutolinti; arba žalių rodyklių gretimoms žemėlapius.


METAR-TAF: